createdAt,value
2017-11-06T00:00:40.931Z,101404.56
2017-11-06T00:02:42.774Z,101420.88
2017-11-06T00:04:44.575Z,101406.31
2017-11-06T00:06:46.274Z,101406.65
2017-11-06T00:08:47.907Z,101410.84
2017-11-06T00:10:49.568Z,101413.01
2017-11-06T00:12:51.319Z,101421.20
2017-11-06T00:14:52.998Z,101422.95
2017-11-06T00:16:54.856Z,101413.97
2017-11-06T00:18:56.694Z,101421.75
2017-11-06T00:20:58.252Z,101430.09
2017-11-06T00:22:59.900Z,101430.14
2017-11-06T00:25:01.648Z,101431.62
2017-11-06T00:27:03.309Z,101427.64
2017-11-06T00:29:04.955Z,101432.52
2017-11-06T00:31:06.730Z,101422.86
2017-11-06T00:33:08.568Z,101436.07
2017-11-06T00:35:10.243Z,101426.42
2017-11-06T00:37:12.086Z,101430.47
2017-11-06T00:39:13.763Z,101437.16
2017-11-06T00:41:15.604Z,101443.06
2017-11-06T00:43:17.245Z,101444.78
2017-11-06T00:45:18.895Z,101444.13
2017-11-06T00:47:20.653Z,101435.33
2017-11-06T00:49:22.416Z,101449.97
2017-11-06T00:51:24.162Z,101453.73
2017-11-06T00:53:25.920Z,101456.39
2017-11-06T00:55:27.759Z,101461.71
2017-11-06T00:57:29.372Z,101458.42
2017-11-06T00:59:31.080Z,101463.06
2017-11-06T01:01:32.888Z,101462.22
2017-11-06T01:03:34.897Z,101466.02
2017-11-06T01:05:36.564Z,101470.92
2017-11-06T01:07:38.298Z,101468.02
2017-11-06T01:09:40.162Z,101464.67
2017-11-06T01:11:41.919Z,101465.35
2017-11-06T01:13:43.776Z,101470.05
2017-11-06T01:15:45.635Z,101476.27
2017-11-06T01:17:47.528Z,101477.48
2017-11-06T01:19:49.156Z,101471.09
2017-11-06T01:21:50.893Z,101468.98
2017-11-06T01:23:52.674Z,101479.80
2017-11-06T01:25:54.439Z,101479.23
2017-11-06T01:27:56.290Z,101481.05
2017-11-06T01:29:58.126Z,101482.27
2017-11-06T01:31:59.795Z,101488.55
2017-11-06T01:34:01.395Z,101490.55
2017-11-06T01:36:03.316Z,101486.83
2017-11-06T01:38:05.878Z,101494.53
2017-11-06T01:40:07.565Z,101489.19
2017-11-06T01:42:09.404Z,101492.42
2017-11-06T01:44:11.133Z,101494.20
2017-11-06T01:46:12.794Z,101494.22
2017-11-06T01:48:14.561Z,101506.10
2017-11-06T01:50:16.288Z,101497.68
2017-11-06T01:52:18.077Z,101499.23
2017-11-06T01:54:20.022Z,101505.50
2017-11-06T01:56:21.770Z,101509.92
2017-11-06T01:58:23.853Z,101506.56
2017-11-06T02:00:25.695Z,101508.63
2017-11-06T02:02:27.454Z,101509.08
2017-11-06T02:04:29.412Z,101514.52
2017-11-06T02:06:31.174Z,101509.94
2017-11-06T02:08:36.612Z,101514.17
2017-11-06T02:10:38.375Z,101503.53
2017-11-06T02:12:40.218Z,101507.44
2017-11-06T02:14:41.973Z,101510.98
2017-11-06T02:16:43.729Z,101516.16
2017-11-06T02:18:45.290Z,101514.60
2017-11-06T02:20:47.178Z,101513.84
2017-11-06T02:22:48.891Z,101524.09
2017-11-06T02:24:50.638Z,101518.41
2017-11-06T02:26:52.426Z,101516.77
2017-11-06T02:28:54.160Z,101525.58
2017-11-06T02:30:55.922Z,101523.48
2017-11-06T02:32:57.564Z,101530.75
2017-11-06T02:34:59.331Z,101528.53
2017-11-06T02:37:01.093Z,101530.23
2017-11-06T02:39:03.046Z,101533.18
2017-11-06T02:41:05.330Z,101533.97
2017-11-06T02:43:07.171Z,101540.50
2017-11-06T02:45:08.835Z,101530.30
2017-11-06T02:47:10.787Z,101543.17
2017-11-06T02:49:12.649Z,101536.70
2017-11-06T02:51:15.613Z,101537.73
2017-11-06T02:53:17.287Z,101541.19
2017-11-06T02:55:19.223Z,101551.36
2017-11-06T02:57:20.925Z,101547.18
2017-11-06T02:59:22.759Z,101548.03
2017-11-06T03:01:24.615Z,101563.66
2017-11-06T03:03:26.354Z,101563.61
2017-11-06T03:05:27.919Z,101560.18
2017-11-06T03:07:30.166Z,101556.80
2017-11-06T03:09:31.820Z,101565.25
2017-11-06T03:11:33.687Z,101557.75
2017-11-06T03:13:35.936Z,101564.14
2017-11-06T03:15:37.697Z,101571.06
2017-11-06T03:17:39.482Z,101561.63
2017-11-06T03:19:41.443Z,101573.02
2017-11-06T03:21:43.184Z,101575.61
2017-11-06T03:23:44.934Z,101570.01
2017-11-06T03:25:46.579Z,101577.30
2017-11-06T03:27:48.333Z,101583.22
2017-11-06T03:29:49.891Z,101583.48
2017-11-06T03:31:51.835Z,101590.30
2017-11-06T03:33:53.721Z,101600.94
2017-11-06T03:35:55.449Z,101601.49
2017-11-06T03:37:57.317Z,101609.60
2017-11-06T03:39:58.892Z,101605.74
2017-11-06T03:42:00.622Z,101606.80
2017-11-06T03:44:02.365Z,101596.68
2017-11-06T03:46:04.136Z,101611.34
2017-11-06T03:48:05.896Z,101611.28
2017-11-06T03:50:07.643Z,101617.75
2017-11-06T03:52:09.523Z,101620.59
2017-11-06T03:54:11.375Z,101628.42
2017-11-06T03:56:13.120Z,101631.80
2017-11-06T03:58:15.050Z,101641.20
2017-11-06T04:00:16.815Z,101633.44
2017-11-06T04:02:18.892Z,101654.91
2017-11-06T04:04:20.443Z,101643.44
2017-11-06T04:06:22.206Z,101652.56
2017-11-06T04:08:23.933Z,101650.57
2017-11-06T04:10:25.842Z,101648.80
2017-11-06T04:12:27.654Z,101662.95
2017-11-06T04:14:29.537Z,101657.86
2017-11-06T04:16:31.171Z,101664.92
2017-11-06T04:18:32.737Z,101667.09
2017-11-06T04:20:34.566Z,101665.45
2017-11-06T04:22:37.304Z,101673.69
2017-11-06T04:24:39.368Z,101668.63
2017-11-06T04:26:43.034Z,101671.00
2017-11-06T04:28:44.894Z,101671.80
2017-11-06T04:30:46.643Z,101669.80
2017-11-06T04:32:49.699Z,101675.31
2017-11-06T04:34:51.329Z,101688.71
2017-11-06T04:36:53.045Z,101681.55
2017-11-06T04:38:54.764Z,101691.37
2017-11-06T04:40:57.079Z,101690.08
2017-11-06T04:42:58.914Z,101692.66
2017-11-06T04:45:00.471Z,101683.69
2017-11-06T04:47:02.213Z,101690.58
2017-11-06T04:49:03.883Z,101687.56
2017-11-06T04:51:05.611Z,101695.83
2017-11-06T04:53:07.398Z,101708.69
2017-11-06T04:55:09.339Z,101696.37
2017-11-06T04:57:10.972Z,101689.11
2017-11-06T04:59:12.654Z,101699.08
2017-11-06T05:01:14.718Z,101708.51
2017-11-06T05:03:16.563Z,101701.84
2017-11-06T05:05:19.159Z,101714.61
2017-11-06T05:07:20.807Z,101718.58
2017-11-06T05:09:22.767Z,101720.30
2017-11-06T05:11:24.851Z,101726.36
2017-11-06T05:13:28.520Z,101727.28
2017-11-06T05:15:30.279Z,101722.61
2017-11-06T05:17:31.961Z,101727.94
2017-11-06T05:19:33.885Z,101731.66
2017-11-06T05:21:35.858Z,101728.36
2017-11-06T05:23:37.818Z,101741.59
2017-11-06T05:25:39.882Z,101747.67
2017-11-06T05:27:42.364Z,101753.59
2017-11-06T05:29:44.315Z,101757.92
2017-11-06T05:31:46.177Z,101757.53
2017-11-06T05:33:47.923Z,101773.50
2017-11-06T05:35:49.582Z,101765.02
2017-11-06T05:37:51.331Z,101761.30
2017-11-06T05:39:53.388Z,101764.16
2017-11-06T05:41:55.572Z,101767.30
2017-11-06T05:43:57.745Z,101763.89
2017-11-06T05:45:59.804Z,101763.35
2017-11-06T05:48:01.760Z,101766.95
2017-11-06T05:50:03.503Z,101772.31
2017-11-06T05:52:05.685Z,101772.92
2017-11-06T05:54:07.479Z,101787.06
2017-11-06T05:56:09.606Z,101782.06
2017-11-06T06:00:33.720Z,101796.06
2017-11-06T06:02:35.918Z,101793.10
2017-11-06T06:04:38.361Z,101791.97
2017-11-06T06:06:40.421Z,101789.40
2017-11-06T06:08:42.781Z,101791.45
2017-11-06T06:10:44.618Z,101795.84
2017-11-06T06:12:46.568Z,101792.11
2017-11-06T06:14:48.341Z,101796.08
2017-11-06T06:16:50.999Z,101803.23
2017-11-06T06:21:06.090Z,101816.96
2017-11-06T06:23:08.168Z,101809.03
2017-11-06T06:25:10.339Z,101816.41
2017-11-06T06:29:21.113Z,101824.53
2017-11-06T06:31:25.000Z,101827.84
2017-11-06T06:33:28.760Z,101828.55
2017-11-06T06:35:32.154Z,101832.48
2017-11-06T06:37:35.236Z,101843.19
2017-11-06T06:39:38.014Z,101845.54
2017-11-06T06:41:41.335Z,101839.23
2017-11-06T06:43:44.389Z,101849.49
2017-11-06T06:45:47.127Z,101842.20
2017-11-06T06:47:51.002Z,101846.38
2017-11-06T06:49:54.049Z,101848.95
2017-11-06T06:51:57.201Z,101848.62
2017-11-06T06:54:00.435Z,101851.67
2017-11-06T06:56:03.531Z,101854.73
2017-11-06T06:58:06.743Z,101852.19
2017-11-06T07:00:10.382Z,101850.18
2017-11-06T07:02:14.398Z,101852.97
2017-11-06T07:04:16.429Z,101857.33
2017-11-06T07:06:18.109Z,101871.50
2017-11-06T07:08:19.832Z,101869.31
2017-11-06T07:10:23.507Z,101872.70
2017-11-06T07:12:26.942Z,101877.95
2017-11-06T07:14:29.873Z,101888.38
2017-11-06T07:16:32.971Z,101892.28
2017-11-06T07:18:36.876Z,101895.55
2017-11-06T07:20:39.964Z,101895.22
2017-11-06T07:22:45.175Z,101906.34
2017-11-06T07:24:49.928Z,101898.28
2017-11-06T07:26:53.362Z,101907.36
2017-11-06T07:28:56.916Z,101904.75
2017-11-06T07:31:00.102Z,101906.64
2017-11-06T07:33:03.642Z,101906.58
2017-11-06T07:35:06.812Z,101916.91
2017-11-06T07:37:10.497Z,101923.66
2017-11-06T07:39:13.367Z,101923.09
2017-11-06T07:41:16.375Z,101917.99
2017-11-06T07:43:20.070Z,101925.03
2017-11-06T07:45:23.178Z,101923.38
2017-11-06T07:47:26.094Z,101927.96
2017-11-06T07:49:29.448Z,101932.22
2017-11-06T07:51:32.329Z,101929.78
2017-11-06T07:53:35.378Z,101944.70
2017-11-06T07:57:45.149Z,101947.66
2017-11-06T07:59:48.152Z,101959.66
2017-11-06T08:01:52.760Z,101946.73
2017-11-06T08:03:56.151Z,101947.09
2017-11-06T08:05:59.126Z,101963.32
2017-11-06T08:08:02.974Z,101960.44
2017-11-06T08:10:06.115Z,101960.46
2017-11-06T08:12:09.318Z,101958.67
2017-11-06T08:14:12.588Z,101956.92
2017-11-06T08:16:15.729Z,101961.25
2017-11-06T08:18:19.070Z,101957.08
2017-11-06T08:20:23.609Z,101960.97
2017-11-06T08:22:26.791Z,101962.73
2017-11-06T08:24:29.983Z,101969.36
2017-11-06T08:26:35.175Z,101969.94
2017-11-06T08:28:40.565Z,101962.83
2017-11-06T08:30:42.325Z,101967.98
2017-11-06T08:32:43.994Z,101969.79
2017-11-06T08:34:48.319Z,101974.62
2017-11-06T08:36:50.186Z,101986.03
2017-11-06T08:38:52.008Z,101987.95
2017-11-06T08:40:53.695Z,101977.84
2017-11-06T08:42:55.520Z,101983.86
2017-11-06T08:44:57.204Z,101979.20
2017-11-06T08:46:58.952Z,101982.30
2017-11-06T08:49:00.613Z,101988.19
2017-11-06T08:51:02.359Z,101993.02
2017-11-06T08:53:04.086Z,101997.80
2017-11-06T08:55:07.226Z,101995.61
2017-11-06T08:57:08.951Z,101995.16
2017-11-06T08:59:10.623Z,101999.45
2017-11-06T09:01:12.455Z,101997.26
2017-11-06T09:03:14.130Z,101998.02
2017-11-06T09:05:15.802Z,101988.34
2017-11-06T09:07:17.528Z,102002.55
2017-11-06T09:09:19.231Z,101999.91
2017-11-06T09:11:21.555Z,101993.45
2017-11-06T09:13:23.311Z,101991.86
2017-11-06T09:15:25.043Z,102001.31
2017-11-06T09:17:26.915Z,101996.44
2017-11-06T09:19:28.551Z,102005.02
2017-11-06T09:21:30.411Z,102002.40
2017-11-06T09:23:32.068Z,102005.23
2017-11-06T09:25:36.596Z,102010.19
2017-11-06T09:27:38.240Z,102019.24
2017-11-06T09:29:39.999Z,102018.73
2017-11-06T09:31:41.752Z,102015.36
2017-11-06T09:33:43.431Z,102014.25
2017-11-06T09:35:45.247Z,102014.19
2017-11-06T09:37:46.912Z,102025.56
2017-11-06T09:39:48.672Z,102022.74
2017-11-06T09:41:50.435Z,102035.53
2017-11-06T09:43:52.202Z,102024.95
2017-11-06T09:45:53.954Z,102029.14
2017-11-06T09:47:55.689Z,102032.52
2017-11-06T09:49:57.321Z,102026.69
2017-11-06T09:51:59.110Z,102032.19
2017-11-06T09:54:00.756Z,102037.22
2017-11-06T09:56:02.432Z,102036.28
2017-11-06T09:58:04.087Z,102039.24
2017-11-06T10:00:05.808Z,102030.53
2017-11-06T10:02:07.489Z,102038.80
2017-11-06T10:04:09.332Z,102038.82
2017-11-06T10:06:11.085Z,102045.22
2017-11-06T10:08:12.842Z,102037.89
2017-11-06T10:10:14.481Z,102051.12
2017-11-06T10:12:16.032Z,102037.44
2017-11-06T10:14:17.915Z,102042.63
2017-11-06T10:16:19.754Z,102050.00
2017-11-06T10:18:21.401Z,102044.25
2017-11-06T10:20:23.078Z,102045.55
2017-11-06T10:22:24.918Z,102050.54
2017-11-06T10:24:26.574Z,102046.20
2017-11-06T10:26:28.357Z,102048.16
2017-11-06T10:28:30.287Z,102048.80
2017-11-06T10:30:31.931Z,102059.02
2017-11-06T10:32:33.708Z,102052.16
2017-11-06T10:34:35.437Z,102062.02
2017-11-06T10:36:37.350Z,102056.91
2017-11-06T10:38:39.174Z,102053.90
2017-11-06T10:40:40.922Z,102053.46
2017-11-06T10:42:42.881Z,102056.33
2017-11-06T10:44:44.635Z,102052.03
2017-11-06T10:46:46.289Z,102062.09
2017-11-06T10:48:47.954Z,102052.03
2017-11-06T10:50:51.642Z,102061.97
2017-11-06T10:52:53.524Z,102053.32
2017-11-06T10:54:55.280Z,102055.19
2017-11-06T10:56:57.065Z,102055.12
2017-11-06T10:58:58.892Z,102062.33
2017-11-06T11:01:00.633Z,102059.88
2017-11-06T11:03:02.273Z,102061.31
2017-11-06T11:05:03.870Z,102060.28
2017-11-06T11:07:05.568Z,102061.89
2017-11-06T11:09:07.243Z,102063.47
2017-11-06T11:11:08.961Z,102064.41
2017-11-06T11:13:10.549Z,102061.54
2017-11-06T11:15:12.236Z,102054.41
2017-11-06T11:17:13.964Z,102054.48
2017-11-06T11:19:15.801Z,102060.42
2017-11-06T11:21:17.501Z,102051.96
2017-11-06T11:23:19.321Z,102054.99
2017-11-06T11:25:20.990Z,102051.16
2017-11-06T11:27:22.841Z,102054.17
2017-11-06T11:29:24.605Z,102055.12
2017-11-06T11:31:26.388Z,102059.94
2017-11-06T11:33:29.116Z,102054.77
2017-11-06T11:35:31.071Z,102057.84
2017-11-06T11:37:32.922Z,102055.97
2017-11-06T11:39:36.622Z,102054.96
2017-11-06T11:41:40.078Z,102044.63
2017-11-06T11:43:46.180Z,102055.14
2017-11-06T11:45:49.351Z,102022.91
2017-11-06T11:47:53.164Z,102051.10
2017-11-06T11:49:56.544Z,102049.43
2017-11-06T11:51:59.420Z,102054.30
2017-11-06T11:54:03.753Z,102052.30
2017-11-06T11:56:06.823Z,102044.95
2017-11-06T11:58:09.737Z,102059.05
2017-11-06T12:00:12.911Z,102055.30
2017-11-06T12:02:15.883Z,102054.25
2017-11-06T12:04:18.620Z,102054.90
2017-11-06T12:06:22.685Z,102059.30
2017-11-06T12:08:27.009Z,102056.64
2017-11-06T12:10:31.702Z,102067.24
2017-11-06T12:12:37.161Z,102056.98
2017-11-06T12:14:41.730Z,102066.56
2017-11-06T12:16:46.110Z,102065.97
2017-11-06T12:18:50.020Z,102062.06
2017-11-06T12:20:55.030Z,102054.80
2017-11-06T12:22:59.018Z,102059.63
2017-11-06T12:25:04.500Z,102060.84
2017-11-06T12:27:08.510Z,102065.05
2017-11-06T12:29:14.061Z,102061.31
2017-11-06T12:31:18.590Z,102062.54
2017-11-06T12:33:26.720Z,102055.69
2017-11-06T12:35:31.981Z,102056.47
2017-11-06T12:37:36.470Z,102051.27
2017-11-06T12:39:40.079Z,102054.84
2017-11-06T12:41:44.050Z,102050.94
2017-11-06T12:43:48.538Z,102054.09
2017-11-06T12:45:50.428Z,102058.13
2017-11-06T12:47:54.201Z,102056.43
2017-11-06T12:49:57.571Z,102057.23
2017-11-06T12:52:00.528Z,102055.60
2017-11-06T12:54:03.471Z,102053.86
2017-11-06T12:56:06.864Z,102065.70
2017-11-06T12:58:08.636Z,102061.38
2017-11-06T13:00:10.285Z,102059.56
2017-11-06T13:02:11.842Z,102077.11
2017-11-06T13:04:13.624Z,102073.25
2017-11-06T13:06:19.043Z,102068.02
2017-11-06T13:08:22.963Z,102062.77
2017-11-06T13:10:27.445Z,102076.73
2017-11-06T13:12:31.373Z,102086.42
2017-11-06T13:14:33.282Z,102079.11
2017-11-06T13:16:34.995Z,102081.92
2017-11-06T13:18:36.662Z,102084.89
2017-11-06T13:20:38.709Z,102082.77
2017-11-06T13:22:40.456Z,102079.95
2017-11-06T13:24:45.804Z,102087.11
2017-11-06T13:26:49.398Z,102080.63
2017-11-06T13:28:53.897Z,102081.83
2017-11-06T13:30:56.772Z,102079.84
2017-11-06T13:33:00.115Z,102085.36
2017-11-06T13:35:02.830Z,102091.77
2017-11-06T13:37:05.936Z,102087.77
2017-11-06T13:39:09.212Z,102097.95
2017-11-06T13:41:14.518Z,102096.37
2017-11-06T13:43:17.529Z,102098.02
2017-11-06T13:45:21.596Z,102088.33
2017-11-06T13:47:26.245Z,102089.33
2017-11-06T13:49:28.306Z,102090.92
2017-11-06T13:51:30.231Z,102093.81
2017-11-06T13:53:31.876Z,102099.54
2017-11-06T13:55:33.436Z,102088.37
2017-11-06T13:57:35.079Z,102098.02
2017-11-06T13:59:36.631Z,102096.00
2017-11-06T14:01:38.401Z,102098.20
2017-11-06T14:03:45.076Z,102093.73
2017-11-06T14:05:46.927Z,102097.20
2017-11-06T14:07:50.811Z,102096.12
2017-11-06T14:09:54.495Z,102097.01
2017-11-06T14:11:57.479Z,102105.89
2017-11-06T14:14:00.379Z,102097.98
2017-11-06T14:16:04.490Z,102099.72
2017-11-06T14:18:07.560Z,102110.84
2017-11-06T14:20:10.542Z,102104.31
2017-11-06T14:22:14.032Z,102107.66
2017-11-06T14:24:17.121Z,102108.33
2017-11-06T14:26:20.514Z,102100.07
2017-11-06T14:28:24.220Z,102108.03
2017-11-06T14:30:28.689Z,102106.77
2017-11-06T14:32:33.287Z,102111.87
2017-11-06T14:34:37.382Z,102112.48
2017-11-06T14:36:40.460Z,102116.62
2017-11-06T14:38:44.960Z,102113.61
2017-11-06T14:40:48.476Z,102115.19
2017-11-06T14:42:52.261Z,102114.46
2017-11-06T14:44:55.466Z,102128.16
2017-11-06T14:46:59.587Z,102124.87
2017-11-06T14:49:02.884Z,102122.95
2017-11-06T14:51:06.055Z,102132.36
2017-11-06T14:53:09.346Z,102128.91
2017-11-06T14:55:12.577Z,102132.53
2017-11-06T14:57:16.128Z,102139.80
2017-11-06T14:59:19.724Z,102139.38
2017-11-06T15:01:22.534Z,102135.05
2017-11-06T15:03:26.151Z,102139.48
2017-11-06T15:05:29.622Z,102137.69
2017-11-06T15:07:32.736Z,102137.73
2017-11-06T15:09:35.782Z,102136.51
2017-11-06T15:11:39.588Z,102139.70
2017-11-06T15:13:42.683Z,102139.27
2017-11-06T15:15:45.747Z,102132.62
2017-11-06T15:17:49.583Z,102135.14
2017-11-06T15:19:52.566Z,102132.24
2017-11-06T15:21:55.529Z,102136.08
2017-11-06T15:26:07.172Z,102145.42
2017-11-06T15:28:10.340Z,102145.14
2017-11-06T15:30:13.938Z,102144.69
2017-11-06T15:32:17.149Z,102145.94
2017-11-06T15:34:20.074Z,102150.70
2017-11-06T15:36:23.792Z,102146.16
2017-11-06T15:38:26.555Z,102150.91
2017-11-06T15:40:30.678Z,102151.78
2017-11-06T15:42:35.187Z,102151.34
2017-11-06T15:44:38.282Z,102143.73
2017-11-06T15:46:40.963Z,102147.52
2017-11-06T15:48:44.702Z,102153.79
2017-11-06T15:50:47.551Z,102157.31
2017-11-06T15:52:50.726Z,102163.23
2017-11-06T15:54:54.351Z,102159.71
2017-11-06T15:56:57.209Z,102158.91
2017-11-06T15:59:00.838Z,102158.52
2017-11-06T16:01:04.324Z,102156.82
2017-11-06T16:03:07.612Z,102156.39
2017-11-06T16:05:13.218Z,102161.43
2017-11-06T16:07:17.152Z,102166.98
2017-11-06T16:09:21.572Z,102166.62
2017-11-06T16:13:34.501Z,102163.90
2017-11-06T16:15:37.732Z,102164.91
2017-11-06T16:17:40.458Z,102173.12
2017-11-06T16:19:43.960Z,102167.98
2017-11-06T16:21:45.624Z,102166.20
2017-11-06T16:23:47.240Z,102161.74
2017-11-06T16:25:48.958Z,102167.59
2017-11-06T16:27:50.721Z,102165.52
2017-11-06T16:29:52.473Z,102175.38
2017-11-06T16:31:54.149Z,102173.98
2017-11-06T16:33:55.794Z,102180.38
2017-11-06T16:35:57.321Z,102178.16
2017-11-06T16:37:59.078Z,102182.60
2017-11-06T16:40:00.728Z,102181.16
2017-11-06T16:42:02.889Z,102190.86
2017-11-06T16:44:04.556Z,102187.32
2017-11-06T16:46:06.312Z,102194.17
2017-11-06T16:48:07.758Z,102204.28
2017-11-06T16:50:09.308Z,102192.90
2017-11-06T16:52:10.752Z,102186.54
2017-11-06T16:54:12.404Z,102195.49
2017-11-06T16:56:14.066Z,102198.41
2017-11-06T16:58:15.590Z,102190.95
2017-11-06T17:00:17.391Z,102191.23
2017-11-06T17:02:19.143Z,102189.13
2017-11-06T17:04:22.571Z,102201.95
2017-11-06T17:06:25.670Z,102197.22
2017-11-06T17:08:29.785Z,102190.97
2017-11-06T17:10:32.974Z,102192.62
2017-11-06T17:12:36.363Z,102200.68
2017-11-06T17:14:39.659Z,102195.19
2017-11-06T17:16:42.425Z,102202.97
2017-11-06T17:18:46.138Z,102207.28
2017-11-06T17:20:50.634Z,102202.70
2017-11-06T17:22:53.503Z,102210.64
2017-11-06T17:24:56.434Z,102213.43
2017-11-06T17:27:01.782Z,102214.02
2017-11-06T17:29:04.847Z,102215.67
2017-11-06T17:31:07.959Z,102215.83
2017-11-06T17:33:11.243Z,102213.73
2017-11-06T17:35:14.194Z,102221.95
2017-11-06T17:37:18.748Z,102220.66
2017-11-06T17:39:21.901Z,102223.25
2017-11-06T17:41:25.045Z,102210.53
2017-11-06T17:43:31.841Z,102213.58
2017-11-06T17:45:34.952Z,102217.81
2017-11-06T17:47:38.180Z,102217.48
2017-11-06T17:49:42.475Z,102222.65
2017-11-06T17:51:45.790Z,102217.70
2017-11-06T17:53:48.526Z,102220.57
2017-11-06T17:55:51.530Z,102223.67
2017-11-06T17:57:55.331Z,102228.84
2017-11-06T17:59:58.300Z,102230.28
2017-11-06T18:02:01.080Z,102230.16
2017-11-06T18:04:04.578Z,102229.45
2017-11-06T18:06:07.149Z,102235.47
2017-11-06T18:08:10.156Z,102239.44
2017-11-06T18:10:13.474Z,102238.72
2017-11-06T18:12:16.533Z,102225.98
2017-11-06T18:14:19.295Z,102237.78
2017-11-06T18:16:22.904Z,102242.05
2017-11-06T18:18:26.091Z,102235.56
2017-11-06T18:20:30.016Z,102239.59
2017-11-06T18:22:33.174Z,102241.90
2017-11-06T18:24:36.566Z,102247.94
2017-11-06T18:26:39.346Z,102252.69
2017-11-06T18:28:42.734Z,102251.39
2017-11-06T18:30:45.284Z,102248.97
2017-11-06T18:32:48.279Z,102251.99
2017-11-06T18:34:52.302Z,102258.03
2017-11-06T18:36:55.102Z,102255.93
2017-11-06T18:38:58.188Z,102257.37
2017-11-06T18:41:01.490Z,102259.11
2017-11-06T18:43:04.244Z,102245.52
2017-11-06T18:45:06.990Z,102253.64
2017-11-06T18:47:10.346Z,102250.34
2017-11-06T18:49:13.196Z,102253.37
2017-11-06T18:51:16.355Z,102257.45
2017-11-06T18:53:20.456Z,102260.42
2017-11-06T18:55:22.185Z,102253.63
2017-11-06T18:57:23.849Z,102259.71
2017-11-06T18:59:25.278Z,102263.30
2017-11-06T19:01:26.832Z,102269.77
2017-11-06T19:03:28.503Z,102270.27
2017-11-06T19:05:30.122Z,102274.66
2017-11-06T19:07:31.609Z,102270.48
2017-11-06T19:09:33.119Z,102278.11
2017-11-06T19:11:34.674Z,102277.41
2017-11-06T19:13:36.118Z,102279.34
2017-11-06T19:15:37.592Z,102283.31
2017-11-06T19:17:39.121Z,102275.76
2017-11-06T19:19:40.583Z,102273.87
2017-11-06T19:21:42.130Z,102274.73
2017-11-06T19:23:43.794Z,102277.56
2017-11-06T19:25:45.351Z,102285.39
2017-11-06T19:27:46.999Z,102286.70
2017-11-06T19:29:48.639Z,102275.53
2017-11-06T19:31:50.195Z,102270.06
2017-11-06T19:33:51.853Z,102272.28
2017-11-06T19:35:53.389Z,102281.13
2017-11-06T19:37:54.949Z,102275.80
2017-11-06T19:39:56.605Z,102286.23
2017-11-06T19:41:58.261Z,102282.70
2017-11-06T19:43:59.792Z,102279.34
2017-11-06T19:46:01.352Z,102288.33
2017-11-06T19:48:03.006Z,102288.46
2017-11-06T19:50:04.662Z,102288.39
2017-11-06T19:52:06.311Z,102289.91
2017-11-06T19:54:07.862Z,102279.56
2017-11-06T19:56:09.728Z,102291.52
2017-11-06T19:58:11.303Z,102281.20
2017-11-06T20:00:13.030Z,102285.09
2017-11-06T20:02:14.470Z,102292.02
2017-11-06T20:04:15.916Z,102296.38
2017-11-06T20:06:19.814Z,102292.64
2017-11-06T20:08:22.810Z,102290.28
2017-11-06T20:10:25.558Z,102295.41
2017-11-06T20:12:29.262Z,102293.88
2017-11-06T20:14:31.934Z,102300.16
2017-11-06T20:16:34.827Z,102300.27
2017-11-06T20:18:37.882Z,102307.39
2017-11-06T20:20:40.376Z,102312.70
2017-11-06T20:22:43.470Z,102308.90
2017-11-06T20:24:46.448Z,102313.78
2017-11-06T20:26:49.756Z,102314.52
2017-11-06T20:28:53.903Z,102317.25
2017-11-06T20:30:56.038Z,102327.38
2017-11-06T20:32:58.134Z,102317.06
2017-11-06T20:37:13.080Z,102319.32
2017-11-06T20:39:19.764Z,102320.53
2017-11-06T20:41:21.402Z,102317.22
2017-11-06T20:43:22.959Z,102321.91
2017-11-06T20:45:24.510Z,102320.08
2017-11-06T20:47:26.068Z,102319.20
2017-11-06T20:49:27.826Z,102329.92
2017-11-06T20:51:29.477Z,102332.17
2017-11-06T20:53:31.024Z,102335.97
2017-11-06T20:55:32.560Z,102330.35
2017-11-06T20:57:34.122Z,102324.45
2017-11-06T20:59:35.762Z,102323.67
2017-11-06T21:04:07.857Z,102320.66
2017-11-06T21:06:11.262Z,102319.42
2017-11-06T21:08:14.274Z,102321.17
2017-11-06T21:10:17.202Z,102325.77
2017-11-06T21:12:20.050Z,102325.92
2017-11-06T21:14:23.500Z,102330.23
2017-11-06T21:16:26.344Z,102324.19
2017-11-06T21:18:30.167Z,102318.72
2017-11-06T21:20:35.182Z,102308.80
2017-11-06T21:22:38.704Z,102314.83
2017-11-06T21:24:40.877Z,102320.87
2017-11-06T21:26:42.548Z,102323.38
2017-11-06T21:28:44.275Z,102316.68
2017-11-06T21:30:45.953Z,102308.11
2017-11-06T21:32:47.572Z,102307.76
2017-11-06T21:34:49.445Z,102307.06
2017-11-06T21:36:53.758Z,102313.11
2017-11-06T21:43:43.441Z,102308.36
2017-11-06T21:45:45.321Z,102306.29
2017-11-06T21:47:47.079Z,102318.80
2017-11-06T21:49:48.631Z,102306.16
2017-11-06T21:51:50.272Z,102309.06
2017-11-06T21:53:51.871Z,102309.48
2017-11-06T21:55:53.599Z,102309.06
2017-11-06T21:57:55.347Z,102306.12
2017-11-06T21:59:56.690Z,102304.83
2017-11-06T22:01:58.446Z,102306.98
2017-11-06T22:04:00.004Z,102316.97
2017-11-06T22:06:01.760Z,102317.70
2017-11-06T22:08:03.288Z,102316.39
2017-11-06T22:10:04.954Z,102318.37
2017-11-06T22:12:06.592Z,102310.32
2017-11-06T22:14:08.351Z,102307.12
2017-11-06T22:16:10.122Z,102315.25
2017-11-06T22:18:12.076Z,102311.80
2017-11-06T22:20:13.728Z,102316.65
2017-11-06T22:22:15.487Z,102315.30
2017-11-06T22:24:17.154Z,102314.07
2017-11-06T22:26:18.928Z,102313.13
2017-11-06T22:28:20.547Z,102314.86
2017-11-06T22:30:22.201Z,102307.61
2017-11-06T22:32:23.960Z,102311.06
2017-11-06T22:34:25.786Z,102306.38
2017-11-06T22:36:27.400Z,102298.67
2017-11-06T22:38:29.030Z,102298.62
2017-11-06T22:40:30.755Z,102309.39
2017-11-06T22:42:34.860Z,102307.65
2017-11-06T22:44:36.838Z,102297.85
2017-11-06T22:46:38.505Z,102305.67
2017-11-06T22:48:40.557Z,102307.38
2017-11-06T22:50:42.403Z,102302.34
2017-11-06T22:52:44.398Z,102308.20
2017-11-06T22:54:46.286Z,102291.08
2017-11-06T22:56:48.610Z,102302.20
2017-11-06T22:58:50.122Z,102302.27
2017-11-06T23:00:51.438Z,102291.94
2017-11-06T23:02:53.153Z,102300.18
2017-11-06T23:04:54.686Z,102292.55
2017-11-06T23:06:56.636Z,102284.44
2017-11-06T23:08:58.718Z,102283.81
2017-11-06T23:11:00.305Z,102277.14
2017-11-06T23:13:03.952Z,102273.52
2017-11-06T23:15:05.628Z,102274.69
2017-11-06T23:17:07.961Z,102274.63
2017-11-06T23:19:10.066Z,102280.57
2017-11-06T23:21:12.006Z,102277.55
2017-11-06T23:23:13.992Z,102282.30
2017-11-06T23:25:15.530Z,102286.42
2017-11-06T23:27:17.474Z,102269.77
2017-11-06T23:29:19.755Z,102263.77
2017-11-06T23:31:21.511Z,102268.87
2017-11-06T23:33:23.472Z,102258.72
2017-11-06T23:35:26.050Z,102262.00
2017-11-06T23:37:27.714Z,102253.83
2017-11-06T23:39:29.360Z,102252.97